Terminal Aerodrome Forecast
Issued by NWS Rapid City, SD

Home | Current Version | Previous Version | Text Only | Print | Product List | Glossary Off
Versions: 1 2 3 4 5 6 7 8 9 10 11 12 13 14

000
FTUS43 KUNR 282300
TAFRAP
TAF
KRAP 282329Z 2900/2924 35012KT P6SM SKC
     FM290200 VRB03KT P6SM SKC
     FM292100 36008KT P6SM BKN200=

USA.gov is the U.S. government's official web portal to all federal, state and local government web resources and services.